Time;durP1;ratioP1;P1;durP2;ratioP2;P2;SDS_P1;SDS_P2;PMS_P1;PMS_P2;Temp;Humidity;BMP_temperature;BMP_pressure;BME280_temperature;BME280_humidity;BME280_pressure;Samples;Min_cycle;Max_cycle;Signal;HPM_P1;HPM_P2
2022/10/16 00:00:32;;;;;;;6.57;3.35;;;;;;;12.18;100.00;100933.88;5089298;28;20665;-69
2022/10/16 00:02:57;;;;;;;6.57;3.10;;;;;;;12.18;100.00;100939.22;5089290;28;20059;-70
2022/10/16 00:05:23;;;;;;;6.70;3.17;;;;;;;12.18;100.00;100935.69;5089079;28;20032;-69
2022/10/16 00:07:48;;;;;;;5.13;3.17;;;;;;;12.18;100.00;100938.38;5089147;28;20395;-69
2022/10/16 00:10:13;;;;;;;11.07;3.58;;;;;;;12.15;100.00;100923.56;5089413;28;20032;-69
2022/10/16 00:12:39;;;;;;;10.07;3.40;;;;;;;12.20;100.00;100926.44;5093147;28;20023;-69
2022/10/16 00:15:05;;;;;;;4.72;3.85;;;;;;;12.16;100.00;100917.22;5093243;28;20047;-69
2022/10/16 00:17:31;;;;;;;6.45;2.75;;;;;;;12.17;100.00;100929.53;5093262;28;20032;-70
2022/10/16 00:19:56;;;;;;;8.18;3.30;;;;;;;12.19;100.00;100932.00;5093142;28;20081;-69
2022/10/16 00:22:22;;;;;;;6.90;3.03;;;;;;;12.16;100.00;100933.25;5093180;28;20036;-70
2022/10/16 00:24:47;;;;;;;12.27;3.85;;;;;;;12.13;100.00;100936.34;5093183;28;20078;-69
2022/10/16 00:27:12;;;;;;;5.82;3.78;;;;;;;12.12;100.00;100933.84;5093063;28;20071;-69
2022/10/16 00:29:38;;;;;;;4.32;2.63;;;;;;;12.10;100.00;100928.69;5093081;28;20111;-70
2022/10/16 00:32:03;;;;;;;6.40;3.13;;;;;;;12.09;100.00;100929.75;5093117;28;20028;-69
2022/10/16 00:34:29;;;;;;;6.97;3.72;;;;;;;12.08;100.00;100936.13;5092831;28;20101;-69
2022/10/16 00:36:54;;;;;;;10.18;4.07;;;;;;;12.06;100.00;100930.16;5092938;28;20483;-69
2022/10/16 00:39:20;;;;;;;12.15;4.45;;;;;;;12.02;100.00;100923.56;5092369;28;20984;-69
2022/10/16 00:41:45;;;;;;;5.65;2.83;;;;;;;12.05;100.00;100933.84;5092711;28;20426;-66
2022/10/16 00:44:49;;;;;;;6.65;3.15;;;;;;;12.05;100.00;100929.34;5092756;28;20398;-65
2022/10/16 00:47:24;;;;;;;5.55;3.80;;;;;;;12.05;100.00;100934.69;5093930;28;20464;-65
2022/10/16 00:49:53;;;;;;;5.13;2.60;;;;;;;12.04;100.00;100934.88;5093161;28;20398;-65
2022/10/16 00:52:19;;;;;;;6.90;3.70;;;;;;;12.02;100.00;100932.38;5092645;28;20024;-66
2022/10/16 00:54:46;;;;;;;4.47;2.72;;;;;;;12.02;100.00;100942.25;5092544;28;20108;-65
2022/10/16 00:57:11;;;;;;;10.55;3.80;;;;;;;11.95;100.00;100934.25;5092224;28;20061;-69
2022/10/16 00:59:40;;;;;;;6.35;3.10;;;;;;;11.96;100.00;100943.91;5092339;28;20032;-69
2022/10/16 01:02:08;;;;;;;6.00;3.20;;;;;;;11.91;100.00;100945.53;5092323;28;20059;-69
2022/10/16 01:04:44;;;;;;;6.32;3.15;;;;;;;11.91;100.00;100938.34;5092385;28;20031;-68
2022/10/16 01:07:17;;;;;;;8.73;3.60;;;;;;;11.84;100.00;100927.63;5092174;28;20522;-68
2022/10/16 01:10:10;;;;;;;6.22;3.35;;;;;;;11.90;100.00;100935.91;5092213;28;20039;-69
2022/10/16 01:12:41;;;;;;;7.53;3.10;;;;;;;11.88;100.00;100936.09;5092241;28;20031;-69
2022/10/16 01:15:14;;;;;;;4.85;3.22;;;;;;;11.84;100.00;100921.44;5091580;28;20198;-68
2022/10/16 01:17:51;;;;;;;5.22;3.90;;;;;;;11.77;100.00;100917.97;5092143;28;20107;-68
2022/10/16 01:20:31;;;;;;;4.68;2.92;;;;;;;11.79;100.00;100923.94;5092037;28;20028;-69
2022/10/16 01:23:16;;;;;;;8.82;3.03;;;;;;;11.82;100.00;100926.19;5091085;28;20027;-69
2022/10/16 01:26:12;;;;;;;5.43;2.90;;;;;;;11.82;100.00;100932.34;5091895;28;20513;-69
2022/10/16 01:28:46;;;;;;;4.97;3.08;;;;;;;11.81;100.00;100940.56;5091951;28;20027;-69
2022/10/16 01:31:16;;;;;;;7.32;4.00;;;;;;;11.80;100.00;100939.75;5091909;28;20030;-70
2022/10/16 01:33:46;;;;;;;11.05;3.15;;;;;;;11.81;100.00;100935.22;5091899;28;20024;-70
2022/10/16 01:36:25;;;;;;;8.48;3.13;;;;;;;11.82;100.00;100934.22;5091808;28;20062;-69
2022/10/16 01:38:54;;;;;;;6.43;3.05;;;;;;;11.81;100.00;100935.22;5091276;28;20044;-69
2022/10/16 01:41:27;;;;;;;6.70;3.00;;;;;;;11.82;100.00;100937.69;5091512;28;20024;-69
2022/10/16 01:44:05;;;;;;;5.78;2.75;;;;;;;11.84;100.00;100934.81;5091514;28;20024;-70
2022/10/16 01:46:31;;;;;;;7.93;3.85;;;;;;;11.81;100.00;100936.03;5091617;28;20050;-69
2022/10/16 01:48:58;;;;;;;5.93;2.90;;;;;;;11.83;100.00;100944.66;5090343;28;20024;-69
2022/10/16 01:51:26;;;;;;;8.20;3.40;;;;;;;11.82;100.00;100940.38;5091585;28;20107;-70
2022/10/16 01:53:55;;;;;;;5.20;2.67;;;;;;;11.83;100.00;100935.84;5091436;28;20074;-70
2022/10/16 01:56:23;;;;;;;5.30;2.42;;;;;;;11.87;100.00;100933.59;5091328;28;20024;-69
2022/10/16 01:58:56;;;;;;;4.22;2.75;;;;;;;11.88;100.00;100932.59;5091350;28;20574;-69
2022/10/16 02:01:24;;;;;;;6.90;3.38;;;;;;;11.88;100.00;100940.63;5091335;28;20467;-69
2022/10/16 02:03:53;;;;;;;2.65;2.28;;;;;;;11.88;100.00;100943.28;5091232;28;20032;-69
2022/10/16 02:06:19;;;;;;;4.85;2.83;;;;;;;11.90;100.00;100946.59;5090985;28;20050;-69
2022/10/16 02:08:46;;;;;;;2.85;2.00;;;;;;;11.89;100.00;100943.06;5091167;28;20024;-69
2022/10/16 02:11:11;;;;;;;4.95;3.05;;;;;;;11.90;100.00;100944.72;5091088;28;20024;-69
2022/10/16 02:14:04;;;;;;;9.27;4.00;;;;;;;11.91;100.00;100946.38;5091190;28;20032;-69
2022/10/16 02:16:39;;;;;;;4.95;2.40;;;;;;;11.90;100.00;100949.25;5088526;28;20047;-69
2022/10/16 02:19:06;;;;;;;4.82;2.40;;;;;;;11.89;100.00;100950.28;5090523;28;20426;-69
2022/10/16 02:21:47;;;;;;;7.97;3.05;;;;;;;11.87;100.00;100952.31;5091000;28;20533;-69
2022/10/16 02:24:37;;;;;;;2.42;2.20;;;;;;;11.89;100.00;100959.09;5090859;28;20032;-69
2022/10/16 02:27:08;;;;;;;3.92;2.30;;;;;;;11.85;100.00;100939.13;5090729;28;20024;-69
2022/10/16 02:29:40;;;;;;;5.72;2.78;;;;;;;11.79;100.00;100932.75;5090781;28;20020;-69
2022/10/16 02:32:07;;;;;;;5.20;2.00;;;;;;;11.78;100.00;100938.28;5090767;28;20059;-69
2022/10/16 02:34:33;;;;;;;5.65;2.53;;;;;;;11.80;100.00;100941.59;5089362;28;20021;-69
2022/10/16 02:37:01;;;;;;;6.68;2.78;;;;;;;11.76;100.00;100932.31;5089136;28;20032;-69
2022/10/16 02:39:28;;;;;;;3.65;2.10;;;;;;;11.75;100.00;100933.34;5088943;28;20098;-69
2022/10/16 02:41:54;;;;;;;5.70;3.50;;;;;;;11.75;100.00;100944.03;5090109;28;20020;-69
2022/10/16 02:44:19;;;;;;;3.60;2.33;;;;;;;11.75;100.00;100944.88;5090393;28;20043;-69
2022/10/16 02:46:45;;;;;;;3.05;2.05;;;;;;;11.71;100.00;100942.78;5090630;28;20035;-69
2022/10/16 02:49:10;;;;;;;3.08;2.13;;;;;;;11.71;100.00;100953.47;5090416;28;20050;-69
2022/10/16 02:51:35;;;;;;;3.90;1.80;;;;;;;11.67;100.00;100947.72;5090369;28;20024;-69
2022/10/16 02:54:02;;;;;;;2.67;1.95;;;;;;;11.66;100.00;100945.25;5090232;28;20035;-69
2022/10/16 02:56:27;;;;;;;3.50;2.33;;;;;;;11.66;100.00;100931.88;5090206;28;20743;-69
2022/10/16 02:58:53;;;;;;;5.18;2.83;;;;;;;11.65;100.00;100931.06;5090028;28;20039;-69
2022/10/16 03:01:18;;;;;;;3.72;2.17;;;;;;;11.63;100.00;100928.63;5090320;28;20040;-69
2022/10/16 03:03:43;;;;;;;6.85;2.40;;;;;;;11.61;100.00;100930.66;5090204;28;20109;-69
2022/10/16 03:06:09;;;;;;;4.00;2.00;;;;;;;11.59;100.00;100924.69;5089907;28;20089;-69
2022/10/16 03:08:34;;;;;;;2.95;2.20;;;;;;;11.56;100.00;100942.97;5089972;28;20020;-69
2022/10/16 03:11:00;;;;;;;4.97;2.70;;;;;;;11.56;100.00;100943.78;5089966;28;20514;-69
2022/10/16 03:13:25;;;;;;;3.13;2.20;;;;;;;11.55;100.00;100950.16;5089829;28;20070;-69
2022/10/16 03:15:50;;;;;;;4.68;2.30;;;;;;;11.55;100.00;100952.84;5090147;28;20027;-69
2022/10/16 03:18:16;;;;;;;5.13;2.30;;;;;;;11.54;100.00;100956.53;5090602;28;20032;-70
2022/10/16 03:20:42;;;;;;;4.57;2.25;;;;;;;11.54;100.00;100950.34;5089642;28;20127;-69
2022/10/16 03:23:08;;;;;;;2.70;2.00;;;;;;;11.52;100.00;100947.06;5089740;28;20040;-69
2022/10/16 03:25:34;;;;;;;2.95;2.38;;;;;;;11.49;100.00;100958.16;5089721;28;20394;-69
2022/10/16 03:27:59;;;;;;;2.65;2.25;;;;;;;11.52;100.00;100969.25;5089775;28;20039;-69
2022/10/16 03:30:24;;;;;;;2.70;2.00;;;;;;;11.53;100.00;100967.41;5089765;28;20122;-69
2022/10/16 03:32:53;;;;;;;4.35;2.97;;;;;;;11.53;100.00;100975.44;5089667;28;20123;-70
2022/10/16 03:35:22;;;;;;;6.57;2.03;;;;;;;11.52;100.00;100973.78;5089617;28;20121;-69
2022/10/16 03:37:48;;;;;;;3.63;2.05;;;;;;;11.52;100.00;100979.94;5089640;28;20087;-69
2022/10/16 03:40:14;;;;;;;3.67;2.40;;;;;;;11.52;100.00;100982.59;5089496;28;20070;-69
2022/10/16 03:42:39;;;;;;;5.15;1.80;;;;;;;11.52;100.00;100989.78;5089311;28;20027;-69
2022/10/16 03:45:05;;;;;;;2.65;1.75;;;;;;;11.52;100.00;100984.44;5088839;28;20036;-69
2022/10/16 03:47:32;;;;;;;2.65;2.00;;;;;;;11.51;100.00;100980.97;5089258;28;20027;-69
2022/10/16 03:49:58;;;;;;;2.63;1.88;;;;;;;11.50;100.00;100981.16;5089521;28;20101;-69
2022/10/16 03:52:23;;;;;;;3.08;1.95;;;;;;;11.50;100.00;100978.47;5089351;28;20459;-69
2022/10/16 03:54:49;;;;;;;7.47;2.78;;;;;;;11.52;100.00;100987.13;5089335;28;20162;-69
2022/10/16 03:57:14;;;;;;;3.83;2.03;;;;;;;11.49;100.00;100984.84;5089372;28;20107;-69
2022/10/16 03:59:39;;;;;;;2.55;1.73;;;;;;;11.48;100.00;100993.91;5089285;28;20059;-69
2022/10/16 04:02:05;;;;;;;5.53;2.47;;;;;;;11.48;100.00;100986.72;5088066;28;20478;-69
2022/10/16 04:04:30;;;;;;;3.70;2.40;;;;;;;11.41;100.00;100969.81;5089344;28;20495;-69
2022/10/16 04:06:55;;;;;;;5.80;1.83;;;;;;;11.39;100.00;100967.34;5089352;28;20036;-69
2022/10/16 04:09:21;;;;;;;2.53;1.75;;;;;;;11.51;100.00;100988.16;5089190;28;20051;-69
2022/10/16 04:11:46;;;;;;;3.22;2.13;;;;;;;11.50;100.00;100987.34;5089217;28;20035;-69
2022/10/16 04:14:11;;;;;;;2.88;2.03;;;;;;;11.51;100.00;100986.31;5089197;28;20060;-69
2022/10/16 04:16:37;;;;;;;3.85;2.55;;;;;;;11.53;100.00;101002.16;5089394;28;20532;-65
2022/10/16 04:19:02;;;;;;;3.40;2.42;;;;;;;11.55;100.00;100997.41;5089054;28;20414;-65
2022/10/16 04:21:27;;;;;;;2.33;2.00;;;;;;;11.54;100.00;100995.78;5088687;28;20028;-65
2022/10/16 04:23:53;;;;;;;3.13;2.47;;;;;;;11.55;100.00;101000.06;5089179;28;20024;-65
2022/10/16 04:26:18;;;;;;;3.25;2.15;;;;;;;11.58;100.00;100997.00;5089176;28;20112;-65
2022/10/16 04:28:44;;;;;;;6.28;2.33;;;;;;;11.61;100.00;101002.78;5089165;28;20028;-65
2022/10/16 04:31:09;;;;;;;4.10;1.98;;;;;;;11.62;100.00;101006.28;5088665;28;20039;-65
2022/10/16 04:33:34;;;;;;;6.03;2.38;;;;;;;11.62;100.00;101003.59;5089015;28;20184;-65
2022/10/16 04:36:01;;;;;;;2.85;1.85;;;;;;;11.64;100.00;101004.22;5089028;28;20113;-66
2022/10/16 04:38:27;;;;;;;4.32;2.25;;;;;;;11.65;100.00;100997.84;5088614;28;20055;-65
2022/10/16 04:40:53;;;;;;;5.38;2.38;;;;;;;11.62;100.00;100992.91;5088940;28;20395;-65
2022/10/16 04:43:18;;;;;;;2.55;1.92;;;;;;;11.63;100.00;100999.91;5089238;28;20116;-65
2022/10/16 04:45:44;;;;;;;2.50;2.00;;;;;;;11.68;100.00;101010.00;5088379;28;20980;-66
2022/10/16 04:48:09;;;;;;;5.40;2.22;;;;;;;11.70;100.00;101016.78;5088956;28;20038;-65
2022/10/16 04:50:34;;;;;;;2.80;2.08;;;;;;;11.70;100.00;101013.28;5088944;28;20065;-65
2022/10/16 04:53:00;;;;;;;2.83;1.77;;;;;;;11.70;100.00;101019.47;5088897;28;20035;-65
2022/10/16 04:55:25;;;;;;;2.85;2.20;;;;;;;11.68;100.00;101021.50;5088837;28;20380;-65
2022/10/16 04:57:50;;;;;;;2.63;1.80;;;;;;;11.68;100.00;101021.50;5089996;28;20028;-65
2022/10/16 05:00:16;;;;;;;6.07;2.42;;;;;;;11.70;100.00;101027.47;5092225;28;20028;-65
2022/10/16 05:02:42;;;;;;;2.90;2.03;;;;;;;11.70;100.00;101034.66;5092412;28;20032;-65
2022/10/16 05:05:07;;;;;;;5.40;1.92;;;;;;;11.69;100.00;101035.72;5092380;28;20052;-65
2022/10/16 05:07:33;;;;;;;5.38;2.10;;;;;;;11.69;100.00;101031.19;5092234;28;20043;-66
2022/10/16 05:09:58;;;;;;;3.58;1.95;;;;;;;11.68;100.00;101028.69;5092304;28;20036;-65
2022/10/16 05:12:23;;;;;;;4.90;2.30;;;;;;;11.68;100.00;101031.38;5092254;28;20036;-65
2022/10/16 05:14:49;;;;;;;5.38;2.20;;;;;;;11.66;100.00;101039.59;5092261;28;20020;-66
2022/10/16 05:17:14;;;;;;;5.00;2.25;;;;;;;11.65;100.00;101040.59;5092154;28;20417;-65
2022/10/16 05:19:39;;;;;;;3.53;2.33;;;;;;;11.66;100.00;101060.97;5092109;28;20362;-66
2022/10/16 05:22:04;;;;;;;4.40;2.42;;;;;;;11.65;100.00;101056.63;5091712;28;20466;-65
2022/10/16 05:24:30;;;;;;;3.15;2.25;;;;;;;11.64;100.00;101063.00;5091855;28;20036;-65
2022/10/16 05:26:55;;;;;;;4.97;2.90;;;;;;;11.64;100.00;101057.66;5092049;28;20070;-66
2022/10/16 05:29:21;;;;;;;5.90;2.67;;;;;;;11.63;100.00;101056.00;5092034;28;20143;-65
2022/10/16 05:31:46;;;;;;;3.78;2.25;;;;;;;11.61;100.00;101050.88;5091996;28;20032;-66
2022/10/16 05:34:12;;;;;;;3.20;1.90;;;;;;;11.62;100.00;101057.84;5091920;28;20028;-65
2022/10/16 05:36:37;;;;;;;3.78;2.22;;;;;;;11.62;100.00;101071.22;5091732;28;20032;-66
2022/10/16 05:39:03;;;;;;;4.90;2.90;;;;;;;11.65;100.00;101071.84;5091608;28;20106;-65
2022/10/16 05:41:28;;;;;;;8.13;3.60;;;;;;;11.66;100.00;101078.81;5091758;28;20390;-65
2022/10/16 05:43:54;;;;;;;5.03;2.65;;;;;;;11.62;100.00;101084.56;5091759;28;20543;-65
2022/10/16 05:46:19;;;;;;;7.57;2.55;;;;;;;11.62;100.00;101089.91;5092292;28;20034;-65
2022/10/16 05:48:45;;;;;;;4.65;2.00;;;;;;;11.62;100.00;101103.28;5091454;28;20054;-65
2022/10/16 05:51:12;;;;;;;4.63;2.80;;;;;;;11.62;100.00;101108.59;5091535;28;20399;-65
2022/10/16 05:53:38;;;;;;;5.93;2.38;;;;;;;11.63;100.00;101112.94;5091567;28;20024;-65
2022/10/16 05:56:05;;;;;;;4.97;2.35;;;;;;;11.63;100.00;101112.09;5091316;28;20110;-65
2022/10/16 05:58:33;;;;;;;6.25;2.60;;;;;;;11.62;100.00;101134.50;5091073;28;20058;-65
2022/10/16 06:01:01;;;;;;;6.72;2.80;;;;;;;11.59;100.00;101133.06;5091281;28;20055;-65
2022/10/16 06:03:27;;;;;;;4.10;2.47;;;;;;;11.60;100.00;101137.38;5091386;28;20028;-65
2022/10/16 06:05:53;;;;;;;5.65;2.53;;;;;;;11.61;100.00;101140.88;5091260;28;20032;-65
2022/10/16 06:08:20;;;;;;;4.50;2.80;;;;;;;11.59;100.00;101146.41;5090960;28;20046;-65
2022/10/16 06:10:46;;;;;;;6.35;2.55;;;;;;;11.58;100.00;101142.09;5090910;28;20082;-65
2022/10/16 06:13:13;;;;;;;4.40;2.33;;;;;;;11.59;100.00;101145.59;5091089;28;20028;-65
2022/10/16 06:15:38;;;;;;;4.13;2.50;;;;;;;11.59;100.00;101156.28;5091006;28;20156;-65
2022/10/16 06:18:05;;;;;;;6.97;2.95;;;;;;;11.57;100.00;101152.97;5090947;28;20642;-65
2022/10/16 06:20:30;;;;;;;4.15;2.33;;;;;;;11.58;100.00;101155.47;5090847;28;20048;-65
2022/10/16 06:22:56;;;;;;;4.97;3.03;;;;;;;11.57;100.00;101163.66;5090823;28;20046;-65
2022/10/16 06:25:22;;;;;;;4.30;3.00;;;;;;;11.58;100.00;101167.97;5090484;28;20024;-65
2022/10/16 06:27:47;;;;;;;6.90;3.63;;;;;;;11.57;100.00;101169.00;5090757;28;20046;-65
2022/10/16 06:30:13;;;;;;;4.05;2.53;;;;;;;11.56;100.00;101167.38;5090211;28;20024;-68
2022/10/16 06:32:38;;;;;;;4.22;2.58;;;;;;;11.55;100.00;101171.03;5090525;28;20130;-68
2022/10/16 06:35:04;;;;;;;8.57;2.90;;;;;;;11.54;100.00;101177.41;5090534;28;20039;-68
2022/10/16 06:37:29;;;;;;;7.05;3.17;;;;;;;11.53;100.00;101184.59;5090413;28;20043;-68
2022/10/16 06:39:54;;;;;;;6.63;2.40;;;;;;;11.52;100.00;101188.28;5090327;28;20158;-69
2022/10/16 06:42:20;;;;;;;2.75;2.17;;;;;;;11.53;100.00;101195.28;5090644;28;20036;-69
2022/10/16 06:44:45;;;;;;;5.38;2.50;;;;;;;11.53;100.00;101194.47;5090510;28;20122;-69
2022/10/16 06:47:11;;;;;;;5.35;2.38;;;;;;;11.55;100.00;101198.59;5090439;28;20031;-69
2022/10/16 06:49:36;;;;;;;4.85;2.95;;;;;;;11.58;100.00;101197.34;5090032;28;20024;-68
2022/10/16 06:52:02;;;;;;;4.25;2.60;;;;;;;11.57;100.00;101203.72;5090384;28;20074;-69
2022/10/16 06:54:27;;;;;;;6.80;3.15;;;;;;;11.57;100.00;101198.38;5090283;28;20028;-69
2022/10/16 06:56:56;;;;;;;4.68;2.70;;;;;;;11.66;100.00;101201.72;5090093;28;20093;-68
2022/10/16 06:59:21;;;;;;;3.65;2.80;;;;;;;11.69;100.00;101204.03;5089862;28;20032;-68
2022/10/16 07:01:47;;;;;;;9.07;4.15;;;;;;;11.76;100.00;101211.06;5090047;28;20065;-68
2022/10/16 07:04:12;;;;;;;3.10;2.47;;;;;;;11.80;100.00;101220.34;5089914;28;20051;-68
2022/10/16 07:06:38;;;;;;;5.97;2.83;;;;;;;11.85;100.00;101219.75;5089838;28;20050;-68
2022/10/16 07:09:06;;;;;;;5.30;3.20;;;;;;;11.91;100.00;101223.50;5089920;28;20127;-68
2022/10/16 07:11:32;;;;;;;2.95;2.33;;;;;;;11.95;100.00;101225.59;5090044;28;20081;-69
2022/10/16 07:13:59;;;;;;;6.72;2.70;;;;;;;12.06;100.00;101229.56;5089903;28;20016;-71
2022/10/16 07:16:29;;;;;;;5.45;2.80;;;;;;;12.16;100.00;101237.25;5089772;28;20042;-67
2022/10/16 07:18:58;;;;;;;4.80;2.78;;;;;;;12.24;100.00;101240.56;5089639;28;20024;-67
2022/10/16 07:21:25;;;;;;;5.20;2.53;;;;;;;12.35;100.00;101251.75;5089177;28;20127;-68
2022/10/16 07:23:55;;;;;;;7.45;2.60;;;;;;;12.40;100.00;101249.28;5089707;28;20046;-68
2022/10/16 07:26:21;;;;;;;4.82;2.72;;;;;;;12.40;100.00;101241.28;5087858;28;20419;-69
2022/10/16 07:28:47;;;;;;;5.65;2.92;;;;;;;12.49;100.00;101261.47;5089606;28;20066;-68
2022/10/16 07:31:14;;;;;;;7.82;3.15;;;;;;;12.59;100.00;101263.78;5089588;28;20055;-67
2022/10/16 07:33:42;;;;;;;6.85;2.67;;;;;;;12.67;100.00;101267.09;5089279;28;20036;-69
2022/10/16 07:36:08;;;;;;;4.60;2.75;;;;;;;12.72;100.00;101272.66;5089589;28;20036;-69
2022/10/16 07:38:34;;;;;;;3.55;2.60;;;;;;;12.78;100.00;101279.06;5089371;28;20066;-69
2022/10/16 07:41:06;;;;;;;9.63;3.05;;;;;;;12.83;100.00;101279.28;5088490;28;20051;-69
2022/10/16 07:43:33;;;;;;;4.93;2.45;;;;;;;12.88;100.00;101268.00;5089574;28;20031;-69
2022/10/16 07:45:58;;;;;;;4.20;2.22;;;;;;;12.93;100.00;101276.25;5089526;28;20036;-69
2022/10/16 07:48:27;;;;;;;3.40;2.55;;;;;;;13.11;100.00;101294.41;5089343;28;20032;-69
2022/10/16 07:50:56;;;;;;;3.75;2.75;;;;;;;13.20;100.00;101295.88;5089194;28;20565;-69
2022/10/16 07:53:22;;;;;;;6.00;2.30;;;;;;;13.28;100.00;101300.25;5089231;28;20479;-69
2022/10/16 07:55:47;;;;;;;3.85;2.50;;;;;;;13.35;100.00;101303.78;5089260;28;20043;-69
2022/10/16 07:58:12;;;;;;;6.45;3.53;;;;;;;13.47;100.00;101304.81;5089126;28;20128;-69
2022/10/16 08:00:37;;;;;;;4.75;2.67;;;;;;;13.57;100.00;101315.97;5089197;28;20080;-70
2022/10/16 08:03:03;;;;;;;4.63;2.72;;;;;;;13.67;100.00;101317.41;5087929;28;20128;-69
2022/10/16 08:05:30;;;;;;;5.82;2.33;;;;;;;13.76;100.00;101311.63;5089236;28;20043;-68
2022/10/16 08:07:56;;;;;;;3.88;2.10;;;;;;;13.79;100.00;101313.91;5089182;28;20032;-69
2022/10/16 08:10:24;;;;;;;4.25;2.22;;;;;;;13.75;100.00;101323.41;5089038;28;20028;-69
2022/10/16 08:12:50;;;;;;;4.32;2.60;;;;;;;13.80;100.00;101323.59;5089212;28;20055;-68
2022/10/16 08:15:15;;;;;;;4.22;1.90;;;;;;;13.82;100.00;101331.44;5089993;28;20459;-68
2022/10/16 08:17:40;;;;;;;4.20;2.45;;;;;;;13.80;100.00;101338.84;5088873;28;20035;-68
2022/10/16 08:20:06;;;;;;;3.53;2.10;;;;;;;13.81;100.00;101337.84;5089165;28;20040;-68
2022/10/16 08:22:31;;;;;;;7.75;3.05;;;;;;;13.88;100.00;101344.00;5088995;28;20028;-68
2022/10/16 08:24:57;;;;;;;3.20;1.80;;;;;;;13.99;100.00;101350.59;5088981;28;20032;-68
2022/10/16 08:27:22;;;;;;;3.67;1.80;;;;;;;14.05;100.00;101355.16;5088739;28;20024;-68
2022/10/16 08:29:50;;;;;;;6.88;2.95;;;;;;;14.11;100.00;101359.69;5088897;28;20024;-68
2022/10/16 08:32:16;;;;;;;6.82;2.42;;;;;;;14.06;100.00;101359.47;5091218;28;20383;-68
2022/10/16 08:34:41;;;;;;;4.68;2.10;;;;;;;14.09;100.00;101356.38;5093002;28;20028;-68
2022/10/16 08:37:11;;;;;;;3.78;1.83;;;;;;;14.16;100.00;101354.50;5092749;28;20028;-68
2022/10/16 08:39:36;;;;;;;6.05;1.80;;;;;;;14.31;100.00;101369.59;5074543;28;20927;-68
2022/10/16 08:42:02;;;;;;;2.92;2.13;;;;;;;14.35;100.00;101379.66;5090329;28;20040;-69
2022/10/16 08:45:01;;;;;;;7.30;2.28;;;;;;;14.37;100.00;101372.25;5086215;28;20135;-70
2022/10/16 08:47:45;;;;;;;5.45;2.70;;;;;;;14.39;100.00;101382.78;5086007;28;20036;-70
2022/10/16 08:50:23;;;;;;;9.60;2.13;;;;;;;14.33;100.00;101386.28;5088148;28;20016;-69
2022/10/16 08:52:49;;;;;;;2.28;1.92;;;;;;;14.37;100.00;101393.72;5087804;28;20034;-70
2022/10/16 08:55:33;;;;;;;4.63;2.22;;;;;;;14.38;100.00;101386.47;5088048;28;20028;-68
2022/10/16 08:57:59;;;;;;;2.55;2.00;;;;;;;14.38;100.00;101371.22;5088274;28;20415;-69
2022/10/16 09:00:26;;;;;;;3.78;2.00;;;;;;;14.55;100.00;101379.69;5088140;28;20024;-70
2022/10/16 09:03:07;;;;;;;5.50;2.17;;;;;;;14.58;100.00;101381.94;5087750;28;20028;-67
2022/10/16 09:05:50;;;;;;;3.75;2.53;;;;;;;14.70;100.00;101392.88;5087408;28;20107;-67
2022/10/16 09:08:16;;;;;;;7.70;2.20;;;;;;;14.80;99.32;101395.09;5088244;28;20042;-67
2022/10/16 09:11:26;;;;;;;7.93;3.22;;;;;;;14.88;98.85;101400.22;5087456;28;20036;-68
2022/10/16 09:14:10;;;;;;;6.22;2.10;;;;;;;14.89;97.94;101399.22;5044766;28;20025;-67
2022/10/16 09:16:43;;;;;;;2.97;2.22;;;;;;;14.98;97.87;101403.28;5044846;28;20040;-67
2022/10/16 09:19:20;;;;;;;5.72;2.63;;;;;;;15.02;97.09;101407.22;5077822;28;20040;-67
2022/10/16 09:21:47;;;;;;;4.00;2.10;;;;;;;15.15;96.96;101416.28;5092132;28;20101;-66
2022/10/16 09:24:20;;;;;;;2.33;2.00;;;;;;;15.27;96.59;101414.53;5092128;28;20036;-66
2022/10/16 09:26:47;;;;;;;5.75;2.60;;;;;;;15.26;93.91;101419.09;5091962;28;20027;-66
2022/10/16 09:29:19;;;;;;;5.68;1.70;;;;;;;15.26;93.75;101431.72;5091218;28;20162;-66
2022/10/16 09:31:45;;;;;;;3.97;1.60;;;;;;;15.33;95.26;101424.47;5091727;28;20043;-66
2022/10/16 09:34:34;;;;;;;6.63;2.15;;;;;;;15.41;93.42;101428.78;5091760;28;20024;-67
2022/10/16 09:37:03;;;;;;;6.18;2.60;;;;;;;15.46;93.70;101424.38;5091920;28;20028;-66
2022/10/16 09:39:28;;;;;;;6.85;2.28;;;;;;;15.51;94.09;101419.19;5091506;28;20048;-66
2022/10/16 09:41:55;;;;;;;3.70;1.70;;;;;;;15.65;92.85;101422.63;5091753;28;20051;-66
2022/10/16 09:44:27;;;;;;;2.67;1.77;;;;;;;15.70;91.21;101422.00;5090941;28;20028;-66
2022/10/16 09:47:26;;;;;;;3.70;1.50;;;;;;;15.74;92.57;101425.91;5091550;28;20024;-66
2022/10/16 09:49:51;;;;;;;5.80;2.42;;;;;;;15.73;89.98;101427.78;5079091;28;20388;-66
2022/10/16 09:52:19;;;;;;;6.30;1.75;;;;;;;15.74;88.58;101433.97;5091501;28;20027;-67
2022/10/16 09:54:54;;;;;;;6.82;2.20;;;;;;;15.77;87.93;101429.00;5090794;28;20032;-68
2022/10/16 09:57:21;;;;;;;6.90;2.72;;;;;;;15.87;88.74;101438.44;5090932;28;20042;-67
2022/10/16 09:59:52;;;;;;;4.30;2.08;;;;;;;15.86;91.50;101436.81;5091127;28;20072;-67
2022/10/16 10:02:23;;;;;;;5.15;1.65;;;;;;;15.89;90.72;101437.19;5091339;28;20073;-67
2022/10/16 10:04:56;;;;;;;2.67;1.55;;;;;;;15.98;88.91;101435.91;5091321;28;20057;-67
2022/10/16 10:07:34;;;;;;;4.93;1.92;;;;;;;15.92;88.46;101436.75;5091114;28;20106;-66
2022/10/16 10:10:01;;;;;;;6.43;1.77;;;;;;;15.75;88.17;101441.00;5091249;28;20085;-67
2022/10/16 10:12:32;;;;;;;5.93;2.85;;;;;;;15.65;87.35;101436.06;5089816;28;20502;-67
2022/10/16 10:15:03;;;;;;;6.10;2.05;;;;;;;15.77;87.73;101447.84;5091038;28;20463;-66
2022/10/16 10:17:29;;;;;;;3.17;2.15;;;;;;;15.94;86.83;101447.31;5091034;28;20034;-66
2022/10/16 10:20:00;;;;;;;6.75;1.45;;;;;;;15.98;88.18;101446.66;5090840;28;20043;-67
2022/10/16 10:22:27;;;;;;;5.93;2.38;;;;;;;16.12;88.78;101457.31;5090930;28;20036;-67
2022/10/16 10:25:01;;;;;;;9.55;2.25;;;;;;;16.22;87.46;101460.34;5090726;28;20031;-67
2022/10/16 10:27:48;;;;;;;8.02;2.35;;;;;;;16.20;86.26;101457.03;5090756;28;20032;-67
2022/10/16 10:30:38;;;;;;;6.10;2.17;;;;;;;16.28;86.32;101466.72;5090609;28;20480;-66
2022/10/16 10:33:25;;;;;;;9.65;2.90;;;;;;;16.27;85.23;101467.75;5090153;28;20471;-67
2022/10/16 10:36:24;;;;;;;8.80;2.92;;;;;;;16.30;85.98;101472.72;5090257;28;20020;-67
2022/10/16 10:38:56;;;;;;;9.85;2.65;;;;;;;16.42;86.99;101474.44;5090292;28;20396;-67
2022/10/16 10:41:40;;;;;;;;;;;;;;;16.62;87.62;101476.97;5091076;28;20040;-67
2022/10/16 10:44:11;;;;;;;11.73;3.72;;;;;;;16.70;83.08;101467.78;5086376;28;19915;-69
2022/10/16 10:46:53;;;;;;;6.88;2.28;;;;;;;16.81;85.05;101461.69;5082595;28;20032;-69
2022/10/16 10:49:40;;;;;;;6.45;1.98;;;;;;;16.90;84.58;101477.56;5085567;28;20210;-70
2022/10/16 10:52:24;;;;;;;6.40;2.38;;;;;;;16.89;83.47;101473.22;5085710;28;20129;-69
2022/10/16 10:55:01;;;;;;;12.40;2.53;;;;;;;16.93;81.54;101471.75;5083837;28;20024;-67
2022/10/16 10:57:45;;;;;;;9.02;2.92;;;;;;;16.96;82.49;101472.13;5084561;28;20035;-69
2022/10/16 11:00:48;;;;;;;11.30;1.98;;;;;;;17.00;82.42;101477.88;5085672;28;20032;-69
2022/10/16 11:03:35;;;;;;;7.72;2.10;;;;;;;17.02;80.47;101479.28;5086149;28;20039;-69
2022/10/16 11:06:08;;;;;;;7.85;2.05;;;;;;;17.06;80.41;101479.69;5084169;28;20024;-70
2022/10/16 11:08:40;;;;;;;9.23;3.33;;;;;;;17.09;78.78;101487.31;5085907;28;20123;-70
2022/10/16 11:11:14;;;;;;;3.10;1.58;;;;;;;17.04;77.63;101490.69;5085384;28;20028;-71
2022/10/16 11:13:43;;;;;;;5.95;1.77;;;;;;;17.06;77.23;101488.59;5085277;28;20054;-71
2022/10/16 11:16:18;;;;;;;4.00;2.00;;;;;;;17.06;78.64;101488.59;5085438;28;20016;-71
2022/10/16 11:18:43;;;;;;;8.70;2.92;;;;;;;17.07;78.18;101486.72;5085168;28;20093;-70
2022/10/16 11:21:14;;;;;;;12.53;2.17;;;;;;;17.13;77.67;101491.19;5085752;28;20063;-68
2022/10/16 11:23:48;;;;;;;10.02;2.88;;;;;;;17.23;76.91;101482.59;5085148;28;20306;-68
2022/10/16 11:26:21;;;;;;;9.32;2.20;;;;;;;17.33;77.12;101484.75;5084923;28;20395;-70
2022/10/16 11:28:54;;;;;;;15.77;2.67;;;;;;;17.22;72.87;101481.78;5085559;28;20117;-68